Time;durP1;ratioP1;P1;durP2;ratioP2;P2;SDS_P1;SDS_P2;PMS_P1;PMS_P2;Temp;Humidity;BMP_temperature;BMP_pressure;BME280_temperature;BME280_humidity;BME280_pressure;Samples;Min_cycle;Max_cycle;Signal;HPM_P1;HPM_P2
2021/04/14 00:00:43;;;;;;;29.67;19.23;;;2.00;99.90;;;;;;5034501;28;20527;-74
2021/04/14 00:03:15;;;;;;;29.92;20.08;;;2.00;99.90;;;;;;5033140;28;20018;-73
2021/04/14 00:05:41;;;;;;;28.92;18.80;;;1.90;99.90;;;;;;5034350;28;20477;-74
2021/04/14 00:08:07;;;;;;;25.80;16.75;;;2.00;99.90;;;;;;5034372;28;20021;-73
2021/04/14 00:10:35;;;;;;;27.15;17.65;;;2.10;99.90;;;;;;5034277;28;20481;-73
2021/04/14 00:13:03;;;;;;;27.10;17.65;;;1.80;99.90;;;;;;5034266;28;20588;-74
2021/04/14 00:15:34;;;;;;;23.83;16.50;;;1.60;99.90;;;;;;5033350;28;20141;-74
2021/04/14 00:18:00;;;;;;;26.60;17.37;;;1.60;99.90;;;;;;5032877;28;20404;-74
2021/04/14 00:20:26;;;;;;;27.85;18.65;;;1.70;99.90;;;;;;5034092;28;20029;-74
2021/04/14 00:22:52;;;;;;;24.98;16.23;;;1.60;99.90;;;;;;5034058;28;20030;-74
2021/04/14 00:25:24;;;;;;;23.15;16.30;;;1.50;99.90;;;;;;5033942;28;20029;-74
2021/04/14 00:27:55;;;;;;;;;;;1.30;99.90;;;;;;5034439;28;20473;-73
2021/04/14 00:30:22;;;;;;;28.65;14.73;;;1.40;99.90;;;;;;5032677;28;19951;-74
2021/04/14 00:32:49;;;;;;;27.00;16.77;;;1.40;99.90;;;;;;5032592;28;20033;-74
2021/04/14 00:35:16;;;;;;;26.35;17.13;;;1.50;99.90;;;;;;5033879;28;20025;-74
2021/04/14 00:37:42;;;;;;;23.33;15.88;;;1.50;99.90;;;;;;5032545;28;20036;-74
2021/04/14 00:40:13;;;;;;;28.27;16.95;;;1.30;99.90;;;;;;5033752;28;20021;-74
2021/04/14 00:42:39;;;;;;;27.77;17.92;;;1.10;99.90;;;;;;5032543;28;20148;-74
2021/04/14 00:45:06;;;;;;;24.10;16.40;;;1.00;99.90;;;;;;5033660;28;20485;-74
2021/04/14 00:47:32;;;;;;;28.88;16.23;;;1.10;99.90;;;;;;5033615;28;20388;-74
2021/04/14 00:49:58;;;;;;;27.05;16.50;;;1.00;99.90;;;;;;5033231;28;20029;-74
2021/04/14 00:52:24;;;;;;;26.58;17.08;;;1.00;99.90;;;;;;5032828;28;20105;-74
2021/04/14 00:54:50;;;;;;;28.10;17.35;;;1.00;99.90;;;;;;5033331;28;20116;-73
2021/04/14 00:57:16;;;;;;;29.58;16.75;;;1.00;99.90;;;;;;5032157;28;20112;-73
2021/04/14 00:59:42;;;;;;;27.95;17.33;;;1.00;99.90;;;;;;5033335;28;20477;-74
2021/04/14 01:02:08;;;;;;;25.88;16.83;;;1.00;99.90;;;;;;5033321;28;20017;-74
2021/04/14 01:04:35;;;;;;;23.58;15.43;;;1.00;99.90;;;;;;5033261;28;20108;-74
2021/04/14 01:07:01;;;;;;;25.63;16.42;;;1.10;99.90;;;;;;5033231;28;20033;-74
2021/04/14 01:09:27;;;;;;;28.58;17.13;;;1.00;99.90;;;;;;5031842;28;20033;-74
2021/04/14 01:11:56;;;;;;;31.27;18.38;;;0.70;99.90;;;;;;5033094;28;20108;-73
2021/04/14 01:14:22;;;;;;;33.55;16.55;;;0.70;99.90;;;;;;5032917;28;20029;-74
2021/04/14 01:16:47;;;;;;;25.42;16.48;;;0.60;99.90;;;;;;5033012;28;20041;-74
2021/04/14 01:19:13;;;;;;;26.90;17.83;;;0.60;99.90;;;;;;5032980;28;20049;-73
2021/04/14 01:21:42;;;;;;;29.23;17.25;;;0.50;99.90;;;;;;5032800;28;20048;-74
2021/04/14 01:24:17;;;;;;;27.75;17.02;;;0.50;99.90;;;;;;5032918;28;20044;-74
2021/04/14 01:26:43;;;;;;;29.52;17.05;;;0.50;99.90;;;;;;5032814;28;20103;-72
2021/04/14 01:29:11;;;;;;;29.92;18.60;;;0.50;99.90;;;;;;5032782;28;20059;-73
2021/04/14 01:31:37;;;;;;;27.55;18.08;;;0.70;99.90;;;;;;5032721;28;20032;-74
2021/04/14 01:34:09;;;;;;;28.20;17.88;;;0.90;99.90;;;;;;5032737;28;20169;-74
2021/04/14 01:36:34;;;;;;;28.67;18.60;;;0.90;99.90;;;;;;5031396;28;20091;-74
2021/04/14 01:39:01;;;;;;;28.77;18.30;;;1.00;99.90;;;;;;5032648;28;20440;-74
2021/04/14 01:41:26;;;;;;;32.70;19.85;;;1.10;99.90;;;;;;5032564;28;20025;-74
2021/04/14 01:43:52;;;;;;;26.77;17.73;;;0.90;99.90;;;;;;5031251;28;20034;-74
2021/04/14 01:46:18;;;;;;;30.85;19.42;;;0.70;99.90;;;;;;5032571;28;20075;-74
2021/04/14 01:48:44;;;;;;;32.40;18.38;;;0.50;99.90;;;;;;5031154;28;20420;-73
2021/04/14 01:51:10;;;;;;;37.00;18.30;;;0.40;99.90;;;;;;5032464;28;20094;-74
2021/04/14 01:53:36;;;;;;;31.08;18.15;;;0.40;99.90;;;;;;5032414;28;20029;-73
2021/04/14 01:56:02;;;;;;;35.70;19.52;;;0.60;99.90;;;;;;5032315;28;20366;-73
2021/04/14 01:58:30;;;;;;;30.35;18.08;;;0.80;99.90;;;;;;5032333;28;20025;-74
2021/04/14 02:01:00;;;;;;;30.15;18.13;;;1.00;99.90;;;;;;5032254;28;20049;-73
2021/04/14 02:03:29;;;;;;;28.17;18.33;;;0.90;99.90;;;;;;5031996;28;20497;-73
2021/04/14 02:05:55;;;;;;;27.48;18.73;;;0.90;99.90;;;;;;5014414;28;20040;-74
2021/04/14 02:08:21;;;;;;;30.65;19.25;;;0.80;99.90;;;;;;5032201;28;20485;-73
2021/04/14 02:10:47;;;;;;;30.10;19.67;;;0.70;99.90;;;;;;5032098;28;20029;-74
2021/04/14 02:13:19;;;;;;;34.55;20.00;;;0.80;99.90;;;;;;5030895;28;20026;-74
2021/04/14 02:15:45;;;;;;;32.00;20.00;;;1.00;99.90;;;;;;5032051;28;20025;-74
2021/04/14 02:18:11;;;;;;;31.38;19.25;;;1.10;99.90;;;;;;5030864;28;20032;-74
2021/04/14 02:20:37;;;;;;;31.35;19.60;;;1.00;99.90;;;;;;5032083;28;20017;-74
2021/04/14 02:23:18;;;;;;;29.13;19.10;;;0.90;99.90;;;;;;5032057;28;20026;-74
2021/04/14 02:25:45;;;;;;;37.33;19.70;;;0.90;99.90;;;;;;5032082;28;20033;-73
2021/04/14 02:28:11;;;;;;;27.33;18.35;;;0.90;99.90;;;;;;5030771;28;20107;-74
2021/04/14 02:30:38;;;;;;;29.45;18.35;;;0.90;99.90;;;;;;5032257;28;20018;-73
2021/04/14 02:33:05;;;;;;;33.28;18.70;;;1.10;99.90;;;;;;5031949;28;20036;-74
2021/04/14 02:35:32;;;;;;;29.77;18.40;;;1.00;99.90;;;;;;5031829;28;20120;-74
2021/04/14 02:37:57;;;;;;;28.98;19.17;;;1.10;99.90;;;;;;5014137;28;20030;-74
2021/04/14 02:40:23;;;;;;;26.75;16.65;;;1.10;99.90;;;;;;5031880;28;20439;-74
2021/04/14 02:42:49;;;;;;;29.42;17.80;;;1.10;99.90;;;;;;5031768;28;20027;-74
2021/04/14 02:45:18;;;;;;;32.40;18.30;;;1.00;99.90;;;;;;5031816;28;20029;-73
2021/04/14 02:47:44;;;;;;;28.05;17.73;;;1.00;99.90;;;;;;5031781;28;20030;-74
2021/04/14 02:50:10;;;;;;;27.02;17.20;;;1.00;99.90;;;;;;5031796;28;20021;-74
2021/04/14 02:52:36;;;;;;;27.33;16.13;;;1.00;99.90;;;;;;5031802;28;20491;-74
2021/04/14 02:55:03;;;;;;;29.10;18.33;;;1.00;99.90;;;;;;5031624;28;20097;-73
2021/04/14 02:57:29;;;;;;;25.40;16.52;;;0.80;99.90;;;;;;5030402;28;20120;-74
2021/04/14 02:59:55;;;;;;;25.77;16.27;;;0.60;99.90;;;;;;5031638;28;20438;-73
2021/04/14 03:02:21;;;;;;;29.33;17.73;;;0.50;99.90;;;;;;5031656;28;20083;-74
2021/04/14 03:04:47;;;;;;;27.50;16.20;;;0.20;99.90;;;;;;5031671;28;20024;-74
2021/04/14 03:07:13;;;;;;;26.25;16.10;;;0.10;99.90;;;;;;5031632;28;20033;-72
2021/04/14 03:09:39;;;;;;;28.17;16.00;;;-0.10;99.90;;;;;;5031605;28;20497;-74
2021/04/14 03:12:06;;;;;;;28.45;17.70;;;-0.10;99.90;;;;;;5031621;28;20053;-74
2021/04/14 03:14:32;;;;;;;25.40;16.02;;;-0.10;99.90;;;;;;5032845;28;20034;-74
2021/04/14 03:16:58;;;;;;;24.30;15.90;;;-0.10;99.90;;;;;;5035239;28;20032;-74
2021/04/14 03:19:24;;;;;;;28.80;15.45;;;0.10;99.90;;;;;;5035251;28;20444;-74
2021/04/14 03:21:49;;;;;;;30.50;15.82;;;0.20;99.90;;;;;;5035207;28;20224;-73
2021/04/14 03:24:15;;;;;;;24.60;15.93;;;0.10;99.90;;;;;;5035207;28;20014;-74
2021/04/14 03:26:41;;;;;;;22.65;14.57;;;0.10;99.90;;;;;;5035188;28;20080;-74
2021/04/14 03:29:07;;;;;;;29.77;15.93;;;0.00;99.90;;;;;;5033748;28;20433;-74
2021/04/14 03:31:33;;;;;;;27.63;16.02;;;0.10;99.90;;;;;;5035034;28;20053;-74
2021/04/14 03:33:59;;;;;;;27.10;16.60;;;0.10;99.90;;;;;;5034956;28;20043;-74
2021/04/14 03:36:24;;;;;;;23.17;14.48;;;0.00;99.90;;;;;;5033624;28;20021;-74
2021/04/14 03:38:50;;;;;;;26.17;15.93;;;-0.20;99.90;;;;;;5033655;28;20035;-74
2021/04/14 03:41:16;;;;;;;27.42;16.30;;;-0.30;99.90;;;;;;5034892;28;20086;-72
2021/04/14 03:43:42;;;;;;;27.50;15.50;;;-0.40;99.90;;;;;;5034733;28;20025;-74
2021/04/14 03:46:08;;;;;;;27.10;15.57;;;-0.40;99.90;;;;;;5034752;28;20385;-74
2021/04/14 03:48:34;;;;;;;30.98;17.80;;;-0.30;99.90;;;;;;5033580;28;20026;-74
2021/04/14 03:51:00;;;;;;;29.50;16.95;;;0.00;99.90;;;;;;5034630;28;20155;-74
2021/04/14 03:53:38;;;;;;;28.45;18.00;;;0.20;99.90;;;;;;5034546;28;20075;-74
2021/04/14 03:56:13;;;;;;;33.05;17.48;;;0.30;99.90;;;;;;5034537;28;20478;-74
2021/04/14 03:58:43;;;;;;;26.40;16.88;;;0.40;99.90;;;;;;5034528;28;20095;-73
2021/04/14 04:01:11;;;;;;;29.13;17.42;;;0.30;99.90;;;;;;5034460;28;20014;-73
2021/04/14 04:03:37;;;;;;;33.30;18.73;;;0.20;99.90;;;;;;5033227;28;20036;-74
2021/04/14 04:06:04;;;;;;;27.77;17.02;;;0.10;99.90;;;;;;5034366;28;20098;-74
2021/04/14 04:08:29;;;;;;;26.58;16.80;;;0.30;99.90;;;;;;5033061;28;20112;-74
2021/04/14 04:10:55;;;;;;;28.23;19.48;;;0.50;99.90;;;;;;5034240;28;20445;-74
2021/04/14 04:13:21;;;;;;;34.25;18.75;;;0.60;99.90;;;;;;5034096;28;20033;-74
2021/04/14 04:15:47;;;;;;;28.67;18.40;;;0.70;99.90;;;;;;5034155;28;20061;-73
2021/04/14 04:18:13;;;;;;;31.00;17.92;;;0.80;99.90;;;;;;5034111;28;20022;-74
2021/04/14 04:20:40;;;;;;;29.30;16.95;;;0.90;99.90;;;;;;5034122;28;20026;-73
2021/04/14 04:23:07;;;;;;;28.75;18.08;;;1.00;99.90;;;;;;5033937;28;20071;-74
2021/04/14 04:25:33;;;;;;;26.42;16.55;;;1.20;99.90;;;;;;5033859;28;20064;-74
2021/04/14 04:27:59;;;;;;;32.03;18.13;;;1.30;99.90;;;;;;5033946;28;20053;-74
2021/04/14 04:30:26;;;;;;;30.08;17.35;;;1.20;99.90;;;;;;5033924;28;20030;-73
2021/04/14 04:32:52;;;;;;;28.92;17.63;;;0.90;99.90;;;;;;5033871;28;20040;-73
2021/04/14 04:35:19;;;;;;;28.92;18.17;;;1.00;99.90;;;;;;5033754;28;20541;-74
2021/04/14 04:37:45;;;;;;;27.10;17.88;;;0.90;99.90;;;;;;5032546;28;20026;-74
2021/04/14 04:40:11;;;;;;;25.42;16.08;;;1.00;99.90;;;;;;5033647;28;20538;-74
2021/04/14 04:42:37;;;;;;;26.88;17.17;;;0.80;99.90;;;;;;5033643;28;20025;-74
2021/04/14 04:45:05;;;;;;;33.10;18.73;;;1.00;99.90;;;;;;5033628;28;20029;-74
2021/04/14 04:47:31;;;;;;;28.42;17.52;;;1.10;99.90;;;;;;5033590;28;20025;-74
2021/04/14 04:49:57;;;;;;;27.00;16.23;;;1.20;99.90;;;;;;5033480;28;20040;-74
2021/04/14 04:52:22;;;;;;;27.15;16.88;;;1.30;99.90;;;;;;5033520;28;20025;-73
2021/04/14 04:54:48;;;;;;;24.20;15.48;;;1.30;99.90;;;;;;5033374;28;20026;-74
2021/04/14 04:57:14;;;;;;;27.30;16.77;;;1.20;99.90;;;;;;5033366;28;20096;-74
2021/04/14 04:59:40;;;;;;;23.80;15.82;;;1.20;99.90;;;;;;5033375;28;20029;-74
2021/04/14 05:02:05;;;;;;;24.23;16.20;;;1.10;99.90;;;;;;5032136;28;20624;-74
2021/04/14 05:04:31;;;;;;;25.75;15.65;;;1.10;99.90;;;;;;5033309;28;20053;-74
2021/04/14 05:06:57;;;;;;;25.85;16.05;;;1.00;99.90;;;;;;5033216;28;20060;-74
2021/04/14 05:09:23;;;;;;;23.38;15.65;;;0.90;99.90;;;;;;5033060;28;20363;-74
2021/04/14 05:11:49;;;;;;;28.65;15.95;;;1.00;99.90;;;;;;5031839;28;20022;-74
2021/04/14 05:14:15;;;;;;;24.92;15.88;;;1.10;99.90;;;;;;5031566;28;20462;-74
2021/04/14 05:16:41;;;;;;;26.63;16.38;;;1.20;99.90;;;;;;5031773;28;20029;-74
2021/04/14 05:19:07;;;;;;;24.52;16.58;;;1.30;99.90;;;;;;5032938;28;20477;-74
2021/04/14 05:21:36;;;;;;;24.60;15.95;;;1.20;99.90;;;;;;5032854;28;20456;-74
2021/04/14 05:24:02;;;;;;;27.63;16.05;;;1.30;99.90;;;;;;5032864;28;20032;-73
2021/04/14 05:26:28;;;;;;;25.42;16.20;;;1.30;99.90;;;;;;5032864;28;20056;-74
2021/04/14 05:28:53;;;;;;;25.90;16.80;;;1.20;99.90;;;;;;5032868;28;20060;-74
2021/04/14 05:31:19;;;;;;;32.50;17.77;;;1.20;99.90;;;;;;5032789;28;20489;-74
2021/04/14 05:33:45;;;;;;;24.88;15.15;;;1.20;99.90;;;;;;5032723;28;20033;-73
2021/04/14 05:36:12;;;;;;;26.17;17.58;;;1.20;99.90;;;;;;5032295;28;20393;-73
2021/04/14 05:38:38;;;;;;;30.30;18.13;;;1.20;99.90;;;;;;5032305;28;20025;-74
2021/04/14 05:41:04;;;;;;;27.75;18.13;;;1.30;99.90;;;;;;5032276;28;20136;-74
2021/04/14 05:43:36;;;;;;;29.30;17.67;;;1.40;99.90;;;;;;5032143;28;20385;-73
2021/04/14 05:46:05;;;;;;;26.35;17.48;;;1.20;99.90;;;;;;5032352;28;20028;-74
2021/04/14 05:48:30;;;;;;;26.48;16.23;;;1.40;99.90;;;;;;5031066;28;20417;-74
2021/04/14 05:50:59;;;;;;;25.35;15.85;;;1.30;99.90;;;;;;5032325;28;20040;-74
2021/04/14 05:53:26;;;;;;;25.30;16.70;;;1.30;99.90;;;;;;5032126;28;20052;-74
2021/04/14 05:55:52;;;;;;;28.65;16.85;;;1.40;99.90;;;;;;5032137;28;20112;-74
2021/04/14 05:58:17;;;;;;;26.55;18.02;;;1.40;99.90;;;;;;5032164;28;20117;-73
2021/04/14 06:00:43;;;;;;;26.33;16.67;;;1.50;99.90;;;;;;5032217;28;20021;-73
2021/04/14 06:03:09;;;;;;;27.83;17.63;;;1.60;99.90;;;;;;5030892;28;20068;-74
2021/04/14 06:05:35;;;;;;;27.90;16.92;;;1.60;99.90;;;;;;5032142;28;20432;-74
2021/04/14 06:08:00;;;;;;;26.75;16.08;;;1.50;99.90;;;;;;5030759;28;20061;-74
2021/04/14 06:10:27;;;;;;;27.67;16.67;;;1.50;99.90;;;;;;5032035;28;20026;-74
2021/04/14 06:12:54;;;;;;;28.45;17.63;;;1.60;99.90;;;;;;5032050;28;20030;-74
2021/04/14 06:15:27;;;;;;;28.38;15.30;;;1.70;99.90;;;;;;5030914;28;20026;-73
2021/04/14 06:17:52;;;;;;;21.70;13.98;;;1.70;99.90;;;;;;5032013;28;20052;-74
2021/04/14 06:20:21;;;;;;;25.13;16.73;;;1.70;99.90;;;;;;5031839;28;20029;-73
2021/04/14 06:22:48;;;;;;;27.92;17.20;;;1.80;99.90;;;;;;5031803;28;20067;-74
2021/04/14 06:25:18;;;;;;;24.35;15.45;;;2.00;99.90;;;;;;5031823;28;20081;-74
2021/04/14 06:27:50;;;;;;;25.00;16.05;;;2.00;99.90;;;;;;5031881;28;20029;-74
2021/04/14 06:30:18;;;;;;;24.17;15.57;;;2.00;99.90;;;;;;5030622;28;20029;-74
2021/04/14 06:32:44;;;;;;;23.83;15.68;;;2.10;99.90;;;;;;5030489;28;20397;-74
2021/04/14 06:35:11;;;;;;;25.88;15.90;;;2.10;99.90;;;;;;5030939;28;20496;-74
2021/04/14 06:37:37;;;;;;;22.75;13.95;;;2.20;99.90;;;;;;5031345;28;20393;-74
2021/04/14 06:43:14;;;;;;;29.80;16.27;;;2.20;99.90;;;;;;5031631;28;20052;-74
2021/04/14 06:45:44;;;;;;;24.00;14.35;;;2.10;99.90;;;;;;5031766;28;20109;-74
2021/04/14 06:48:28;;;;;;;23.35;14.73;;;2.10;99.90;;;;;;5030807;28;20044;-73
2021/04/14 06:51:14;;;;;;;25.75;15.85;;;2.00;99.90;;;;;;5034127;28;20030;-74
2021/04/14 06:54:05;;;;;;;25.00;15.57;;;2.10;99.90;;;;;;5034074;28;20037;-74
2021/04/14 06:56:32;;;;;;;22.77;13.38;;;2.00;99.90;;;;;;5035301;28;20030;-74
2021/04/14 06:59:05;;;;;;;22.35;16.10;;;2.00;99.90;;;;;;5035043;28;20359;-74
2021/04/14 07:01:57;;;;;;;23.83;14.82;;;1.90;99.90;;;;;;5061463;28;20029;-74
2021/04/14 07:04:52;;;;;;;23.60;14.55;;;2.10;99.90;;;;;;5054861;28;20025;-74
2021/04/14 07:07:25;;;;;;;21.98;14.98;;;2.40;99.90;;;;;;5053565;28;20128;-74
2021/04/14 07:09:55;;;;;;;22.30;14.45;;;2.70;99.90;;;;;;5054834;28;20032;-74
2021/04/14 07:12:23;;;;;;;19.25;13.18;;;3.00;99.90;;;;;;5055106;28;20029;-74
2021/04/14 07:14:52;;;;;;;20.88;14.10;;;3.20;99.90;;;;;;5071216;28;20064;-75
2021/04/14 07:18:02;;;;;;;23.73;14.68;;;3.30;99.90;;;;;;5074645;28;20412;-74
2021/04/14 07:20:43;;;;;;;22.00;13.85;;;3.40;99.90;;;;;;5074409;28;20107;-74
2021/04/14 07:23:39;;;;;;;20.20;13.47;;;3.50;99.90;;;;;;5074764;28;20033;-74
2021/04/14 07:26:16;;;;;;;25.80;12.43;;;3.60;99.90;;;;;;5074524;28;20286;-74
2021/04/14 07:29:06;;;;;;;25.52;12.32;;;3.80;99.90;;;;;;5063784;28;20056;-74
2021/04/14 07:31:40;;;;;;;20.73;11.82;;;3.90;99.90;;;;;;5054402;28;20025;-74
2021/04/14 07:34:24;;;;;;;21.23;12.23;;;3.70;98.30;;;;;;5054709;28;20028;-74
2021/04/14 07:37:00;;;;;;;22.77;11.15;;;3.60;97.70;;;;;;5054567;28;20024;-73
2021/04/14 07:39:38;;;;;;;20.02;13.05;;;3.80;99.90;;;;;;5054373;28;20029;-73
2021/04/14 07:42:30;;;;;;;28.65;11.05;;;4.00;96.50;;;;;;5054189;28;20098;-77
2021/04/14 07:45:33;;;;;;;26.15;10.43;;;4.10;96.20;;;;;;5054147;28;20029;-73
2021/04/14 07:48:18;;;;;;;17.92;9.27;;;4.20;94.50;;;;;;5054250;28;20021;-73
2021/04/14 07:50:56;;;;;;;94.72;14.98;;;4.30;92.40;;;;;;5058285;28;20071;-73
2021/04/14 07:53:29;;;;;;;25.52;11.90;;;4.30;92.50;;;;;;5057013;28;20484;-72
2021/04/14 07:56:23;;;;;;;18.23;9.38;;;4.40;92.80;;;;;;5058591;28;20024;-73
2021/04/14 07:59:12;;;;;;;15.18;8.50;;;4.60;90.90;;;;;;5053983;28;20384;-73
2021/04/14 08:01:50;;;;;;;19.40;8.13;;;4.80;88.80;;;;;;5057432;28;20124;-72
2021/04/14 08:04:37;;;;;;;59.92;10.45;;;5.10;84.80;;;;;;5063718;28;20023;-73
2021/04/14 08:07:15;;;;;;;15.55;7.50;;;5.10;83.10;;;;;;5053751;28;20021;-74
2021/04/14 08:09:58;;;;;;;18.67;8.35;;;5.20;83.20;;;;;;5066022;28;20051;-73
2021/04/14 08:12:29;;;;;;;116.00;12.10;;;5.30;80.80;;;;;;5060526;28;20372;-73
2021/04/14 08:15:18;;;;;;;16.13;8.93;;;5.30;82.40;;;;;;5053746;28;20025;-73
2021/04/14 08:17:46;;;;;;;19.58;9.23;;;5.40;79.50;;;;;;5056307;28;20108;-74
2021/04/14 08:20:30;;;;;;;20.00;7.28;;;5.60;79.50;;;;;;5073686;28;20021;-73
2021/04/14 08:23:20;;;;;;;36.60;9.57;;;5.60;76.90;;;;;;5066664;28;20021;-74
2021/04/14 08:25:54;;;;;;;47.28;8.75;;;5.60;77.90;;;;;;5053806;28;20025;-74
2021/04/14 08:28:56;;;;;;;59.17;10.35;;;6.00;79.00;;;;;;5054695;28;20523;-74
2021/04/14 08:31:35;;;;;;;15.18;9.10;;;6.00;75.00;;;;;;5053081;28;20442;-74
2021/04/14 08:34:15;;;;;;;44.17;9.65;;;5.80;74.40;;;;;;5053241;28;20067;-74
2021/04/14 08:37:10;;;;;;;21.10;8.57;;;6.10;76.50;;;;;;5052156;28;20037;-74
2021/04/14 08:39:36;;;;;;;13.63;8.32;;;6.30;73.10;;;;;;5055866;28;20028;-74
2021/04/14 08:42:19;;;;;;;43.03;8.77;;;6.60;72.10;;;;;;5073070;28;20021;-74
2021/04/14 08:44:48;;;;;;;15.80;7.93;;;6.90;71.50;;;;;;5056608;28;20029;-72
2021/04/14 08:47:24;;;;;;;26.30;10.27;;;6.90;71.90;;;;;;5053039;28;20017;-74
2021/04/14 08:50:16;;;;;;;20.52;7.50;;;6.40;71.30;;;;;;5052941;28;20020;-73
2021/04/14 08:52:45;;;;;;;17.65;9.13;;;6.20;73.50;;;;;;5044679;28;20048;-74
2021/04/14 08:55:12;;;;;;;19.17;9.82;;;6.10;74.90;;;;;;5051768;28;20443;-74
2021/04/14 08:57:39;;;;;;;54.72;10.10;;;6.10;74.80;;;;;;5054811;28;20025;-73
2021/04/14 09:00:08;;;;;;;23.25;8.13;;;6.10;74.90;;;;;;5072734;28;20063;-74
2021/04/14 09:02:34;;;;;;;15.90;8.77;;;5.90;74.80;;;;;;5072807;28;20023;-74
2021/04/14 09:05:02;;;;;;;36.38;8.02;;;6.10;74.00;;;;;;5072569;28;20052;-74
2021/04/14 09:07:32;;;;;;;38.25;8.80;;;6.50;72.10;;;;;;5056730;28;20033;-74
2021/04/14 09:09:59;;;;;;;22.67;7.55;;;6.80;70.90;;;;;;5051289;28;20055;-74
2021/04/14 09:12:36;;;;;;;40.78;7.85;;;7.00;70.10;;;;;;5051920;28;20032;-74
2021/04/14 09:15:04;;;;;;;112.55;12.90;;;7.50;69.20;;;;;;5052225;28;20039;-74
2021/04/14 09:17:30;;;;;;;17.67;8.23;;;7.90;68.70;;;;;;5052426;28;20033;-73
2021/04/14 09:20:16;;;;;;;24.25;9.75;;;7.50;68.10;;;;;;5051039;28;20480;-72
2021/04/14 09:22:42;;;;;;;30.23;8.07;;;7.40;69.80;;;;;;5051218;28;20124;-73
2021/04/14 09:25:10;;;;;;;10.82;5.32;;;7.80;66.70;;;;;;5050912;28;20048;-74
2021/04/14 09:27:38;;;;;;;27.92;6.95;;;8.30;65.50;;;;;;5052378;28;20191;-74
2021/04/14 09:30:29;;;;;;;10.27;6.05;;;8.60;64.20;;;;;;5051704;28;20074;-72
2021/04/14 09:32:57;;;;;;;27.95;7.32;;;8.80;63.70;;;;;;5055726;28;20074;-73
2021/04/14 09:35:23;;;;;;;28.33;8.20;;;8.50;63.90;;;;;;5072022;28;20430;-74
2021/04/14 09:37:51;;;;;;;40.63;8.57;;;8.20;67.80;;;;;;5065061;28;20103;-73
2021/04/14 09:40:30;;;;;;;13.68;7.43;;;8.70;66.60;;;;;;5052072;28;20024;-74
2021/04/14 09:42:56;;;;;;;14.52;7.03;;;9.20;62.60;;;;;;5059506;28;20518;-74
2021/04/14 09:45:28;;;;;;;11.25;6.55;;;9.00;64.10;;;;;;5070730;28;20405;-74
2021/04/14 09:47:55;;;;;;;9.52;5.63;;;8.60;62.60;;;;;;5071692;28;20153;-74
2021/04/14 09:50:31;;;;;;;13.00;5.95;;;9.10;62.00;;;;;;5071771;28;20040;-73
2021/04/14 09:53:02;;;;;;;13.93;6.60;;;9.70;60.50;;;;;;5060541;28;20492;-73
2021/04/14 09:55:51;;;;;;;9.85;5.75;;;9.10;59.50;;;;;;5055435;28;20029;-74
2021/04/14 09:58:21;;;;;;;15.30;6.30;;;9.20;59.50;;;;;;5050198;28;20120;-74
2021/04/14 10:01:08;;;;;;;11.40;6.18;;;9.70;58.60;;;;;;5052142;28;20078;-75
2021/04/14 10:03:36;;;;;;;8.93;5.80;;;10.00;58.50;;;;;;5051733;28;20082;-74
2021/04/14 10:06:09;;;;;;;20.52;6.20;;;10.40;56.80;;;;;;5051576;28;20025;-74
2021/04/14 10:08:37;;;;;;;18.73;5.78;;;10.10;57.90;;;;;;5049821;28;20040;-74
2021/04/14 10:11:03;;;;;;;8.52;5.70;;;9.70;60.20;;;;;;5050190;28;20017;-74
2021/04/14 10:13:32;;;;;;;19.52;7.30;;;10.20;58.20;;;;;;5031492;28;20032;-74
2021/04/14 10:15:59;;;;;;;17.60;5.72;;;10.30;58.10;;;;;;5031381;28;20022;-74
2021/04/14 10:18:29;;;;;;;11.48;5.30;;;9.90;59.50;;;;;;5031577;28;20028;-74
2021/04/14 10:20:55;;;;;;;15.00;5.85;;;8.90;58.90;;;;;;5031669;28;20420;-74
2021/04/14 10:23:26;;;;;;;21.98;6.30;;;8.20;60.40;;;;;;5031338;28;20029;-74
2021/04/14 10:26:06;;;;;;;9.68;5.50;;;7.40;64.00;;;;;;5030295;28;20029;-72
2021/04/14 10:28:32;;;;;;;14.38;5.35;;;7.40;65.20;;;;;;5031333;28;20028;-73
2021/04/14 10:31:07;;;;;;;23.38;5.78;;;6.80;62.90;;;;;;5030302;28;20436;-74
2021/04/14 10:33:38;;;;;;;29.00;6.03;;;6.70;65.60;;;;;;5031592;28;20044;-73
2021/04/14 10:36:33;;;;;;;10.93;5.53;;;6.80;66.10;;;;;;5031360;28;20017;-74
2021/04/14 10:39:13;;;;;;;8.45;4.47;;;6.90;65.10;;;;;;5027161;28;20029;-74
2021/04/14 10:41:39;;;;;;;10.23;5.40;;;6.60;64.10;;;;;;5030163;28;20029;-74
2021/04/14 10:44:20;;;;;;;26.10;6.43;;;6.60;65.80;;;;;;5031179;28;20022;-74
2021/04/14 10:46:47;;;;;;;18.80;7.63;;;6.60;66.70;;;;;;5030094;28;20026;-77
2021/04/14 10:49:26;;;;;;;23.23;6.00;;;6.20;73.50;;;;;;5030996;28;20029;-73
2021/04/14 10:51:55;;;;;;;31.27;6.80;;;6.10;77.70;;;;;;5031215;28;20442;-74
2021/04/14 10:54:30;;;;;;;15.32;4.88;;;6.20;78.40;;;;;;5031286;28;20071;-73
2021/04/14 10:56:58;;;;;;;36.22;8.45;;;6.20;78.40;;;;;;5063425;28;20020;-73
2021/04/14 10:59:24;;;;;;;41.80;8.60;;;6.20;78.30;;;;;;5071084;28;20091;-73
2021/04/14 11:01:51;;;;;;;12.48;5.55;;;6.00;79.00;;;;;;5070929;28;20565;-74
2021/04/14 11:04:39;;;;;;;55.15;8.57;;;6.00;79.40;;;;;;5071135;28;20033;-73
2021/04/14 11:07:12;;;;;;;23.20;5.90;;;5.90;80.40;;;;;;5071004;28;20422;-74
2021/04/14 11:09:42;;;;;;;25.60;4.63;;;6.00;81.00;;;;;;5070954;28;20017;-74
2021/04/14 11:12:13;;;;;;;16.48;4.93;;;7.20;78.30;;;;;;5070978;28;20016;-74
2021/04/14 11:14:41;;;;;;;17.55;4.30;;;8.40;73.40;;;;;;5070914;28;20059;-73
2021/04/14 11:17:14;;;;;;;13.18;4.97;;;8.60;70.00;;;;;;5070902;28;20109;-72
2021/04/14 11:19:51;;;;;;;13.07;4.60;;;9.20;70.30;;;;;;5030856;28;20030;-74
2021/04/14 11:22:16;;;;;;;12.35;4.38;;;10.00;67.50;;;;;;5031147;28;20057;-74
2021/04/14 11:24:51;;;;;;;36.88;6.25;;;10.40;64.90;;;;;;5045469;28;20052;-74
2021/04/14 11:27:24;;;;;;;11.02;4.50;;;10.60;63.50;;;;;;5033052;28;20022;-74
2021/04/14 11:29:51;;;;;;;17.42;5.00;;;10.80;61.60;;;;;;5070742;28;20021;-73
2021/04/14 11:32:26;;;;;;;16.65;4.40;;;11.30;57.80;;;;;;5069577;28;20020;-74
2021/04/14 11:35:01;;;;;;;15.43;4.45;;;11.60;58.20;;;;;;5070892;28;20025;-74
2021/04/14 11:37:36;;;;;;;11.50;4.57;;;11.50;58.00;;;;;;5074453;28;20126;-74
2021/04/14 11:40:19;;;;;;;15.07;4.68;;;11.30;58.50;;;;;;5062961;28;20025;-73
2021/04/14 11:42:55;;;;;;;21.02;5.63;;;11.20;59.90;;;;;;5074088;28;20025;-73
2021/04/14 11:45:33;;;;;;;15.68;4.93;;;9.90;61.00;;;;;;5074225;28;20024;-74
2021/04/14 11:48:33;;;;;;;9.38;4.30;;;10.00;63.00;;;;;;5074340;28;20036;-74
2021/04/14 11:51:14;;;;;;;8.90;4.47;;;9.80;60.90;;;;;;5053858;28;20040;-74
2021/04/14 11:53:52;;;;;;;17.75;4.97;;;9.40;62.80;;;;;;5072967;28;20419;-73
2021/04/14 11:56:39;;;;;;;17.55;5.35;;;9.80;62.00;;;;;;5074118;28;20533;-74
2021/04/14 11:59:18;;;;;;;23.10;5.25;;;9.80;60.50;;;;;;5072769;28;20024;-74
2021/04/14 12:01:50;;;;;;;17.80;5.68;;;9.70;62.60;;;;;;5072672;28;20024;-75
2021/04/14 12:04:16;;;;;;;21.70;5.50;;;9.00;65.20;;;;;;5074044;28;20029;-74
2021/04/14 12:06:42;;;;;;;13.48;6.03;;;8.30;67.90;;;;;;5073974;28;20100;-74
2021/04/14 12:09:08;;;;;;;26.17;5.40;;;7.80;69.30;;;;;;5073947;28;20032;-74
2021/04/14 12:11:33;;;;;;;9.77;3.90;;;7.80;68.90;;;;;;5074006;28;20071;-74
2021/04/14 12:13:59;;;;;;;8.77;3.40;;;7.20;67.80;;;;;;5066713;28;20401;-74
2021/04/14 12:16:25;;;;;;;17.20;3.80;;;7.10;70.20;;;;;;5053761;28;20028;-74
2021/04/14 12:18:51;;;;;;;20.65;3.58;;;7.40;70.80;;;;;;5052400;28;20029;-74
2021/04/14 12:21:17;;;;;;;30.85;4.95;;;7.60;70.50;;;;;;5053696;28;20021;-74
2021/04/14 12:23:43;;;;;;;16.00;4.28;;;7.60;68.10;;;;;;5053770;28;20059;-73
2021/04/14 12:26:08;;;;;;;7.93;4.22;;;7.40;69.10;;;;;;5053508;28;20067;-74
2021/04/14 12:28:34;;;;;;;7.95;4.03;;;7.20;69.50;;;;;;5053613;28;20024;-74
2021/04/14 12:31:00;;;;;;;18.33;4.75;;;6.80;70.30;;;;;;5059503;28;20024;-74
2021/04/14 12:33:26;;;;;;;18.30;4.18;;;6.60;73.50;;;;;;5073727;28;20024;-74
2021/04/14 12:35:53;;;;;;;9.75;4.47;;;6.60;71.70;;;;;;5073200;28;20142;-74
2021/04/14 12:38:19;;;;;;;20.02;6.15;;;6.50;72.50;;;;;;5073555;28;20024;-74
2021/04/14 12:40:44;;;;;;;5.68;4.07;;;6.50;73.70;;;;;;5072382;28;20031;-74
2021/04/14 12:43:10;;;;;;;19.48;4.93;;;6.80;73.00;;;;;;5066020;28;20484;-74
2021/04/14 12:45:46;;;;;;;21.52;5.82;;;7.10;72.00;;;;;;5052267;28;20067;-73
2021/04/14 12:48:21;;;;;;;23.95;4.90;;;7.10;71.10;;;;;;5056870;28;20025;-74
2021/04/14 12:51:21;;;;;;;29.30;5.95;;;7.30;69.70;;;;;;5073438;28;20027;-73
2021/04/14 12:54:06;;;;;;;21.30;5.75;;;7.50;67.30;;;;;;5073039;28;20024;-74
2021/04/14 12:56:49;;;;;;;6.95;3.95;;;7.30;67.70;;;;;;5063250;28;20112;-74
2021/04/14 12:59:18;;;;;;;12.13;3.60;;;7.20;68.30;;;;;;5073134;28;20021;-74
2021/04/14 13:01:46;;;;;;;15.68;4.00;;;7.40;70.10;;;;;;5063349;28;20365;-74